createdAt,value
2023-01-19T00:02:51.166Z,97850.06
2023-01-19T00:07:53.436Z,97876.13
2023-01-19T00:12:55.761Z,97950.88
2023-01-19T00:17:58.027Z,97781.56
2023-01-19T00:23:00.796Z,97906.13
2023-01-19T00:28:03.364Z,97820.59
2023-01-19T00:33:05.826Z,97921.66
2023-01-19T00:38:08.461Z,97913.78
2023-01-19T00:43:10.785Z,97834.22
2023-01-19T00:48:13.010Z,97911.97
2023-01-19T00:53:15.436Z,97913.53
2023-01-19T00:58:17.783Z,97926.22
2023-01-19T01:03:20.140Z,97933.31
2023-01-19T01:08:22.385Z,97955.66
2023-01-19T01:13:27.512Z,97933.00
2023-01-19T01:18:30.476Z,97891.25
2023-01-19T01:23:33.969Z,97971.72
2023-01-19T01:28:36.223Z,97975.34
2023-01-19T01:33:39.901Z,97938.09
2023-01-19T01:38:43.853Z,97908.13
2023-01-19T01:43:58.487Z,97963.44
2023-01-19T01:49:13.662Z,97918.31
2023-01-19T01:54:27.356Z,97863.63
2023-01-19T01:59:43.555Z,97987.34
2023-01-19T02:04:51.305Z,97897.59
2023-01-19T02:10:12.637Z,97963.16
2023-01-19T02:15:20.300Z,97975.81
2023-01-19T02:20:26.829Z,97875.13
2023-01-19T02:25:29.205Z,97953.56
2023-01-19T02:30:33.110Z,97923.47
2023-01-19T02:35:38.239Z,97963.44
2023-01-19T02:40:43.184Z,97924.63
2023-01-19T02:45:46.795Z,97943.56
2023-01-19T02:51:00.816Z,97990.97
2023-01-19T02:56:42.990Z,97900.44
2023-01-19T03:02:17.764Z,97974.69
2023-01-19T03:07:45.226Z,97917.34
2023-01-19T03:13:04.943Z,97936.31
2023-01-19T03:18:11.020Z,97952.66
2023-01-19T03:23:16.222Z,97926.53
2023-01-19T03:28:22.871Z,98002.81
2023-01-19T03:33:39.192Z,97960.66
2023-01-19T03:38:44.130Z,97906.09
2023-01-19T03:43:50.724Z,97868.78
2023-01-19T03:48:54.374Z,97887.53
2023-01-19T03:53:56.627Z,97883.94
2023-01-19T03:58:58.847Z,97911.47
2023-01-19T04:04:01.199Z,97902.00
2023-01-19T04:09:03.506Z,97928.41
2023-01-19T04:14:05.881Z,97959.34
2023-01-19T04:19:08.165Z,97900.44
2023-01-19T04:24:11.280Z,97958.84
2023-01-19T04:29:14.453Z,97943.56
2023-01-19T04:34:16.778Z,97979.06
2023-01-19T04:39:19.061Z,97941.47
2023-01-19T04:44:21.171Z,97962.00
2023-01-19T04:49:24.050Z,97916.34
2023-01-19T04:54:27.621Z,98033.81
2023-01-19T04:59:29.859Z,97973.94
2023-01-19T05:04:31.988Z,97928.63
2023-01-19T05:09:34.180Z,98001.34
2023-01-19T05:14:36.559Z,97942.19
2023-01-19T05:19:39.259Z,98009.59
2023-01-19T05:24:41.474Z,98022.91
2023-01-19T05:29:43.618Z,97995.50
2023-01-19T05:34:45.761Z,98038.09
2023-01-19T05:39:47.875Z,98056.41
2023-01-19T05:44:50.010Z,97997.69
2023-01-19T05:49:52.234Z,98007.97
2023-01-19T05:54:55.278Z,98024.34
2023-01-19T05:59:57.494Z,98104.34
2023-01-19T06:04:59.827Z,98009.03
2023-01-19T06:10:02.076Z,98028.91
2023-01-19T06:15:04.888Z,98150.59
2023-01-19T06:20:07.961Z,98031.88
2023-01-19T06:25:11.665Z,98110.28
2023-01-19T06:30:14.724Z,98002.41
2023-01-19T06:35:18.402Z,97957.06
2023-01-19T06:40:20.646Z,98094.94
2023-01-19T06:45:22.738Z,98038.75
2023-01-19T06:50:24.844Z,97978.47
2023-01-19T06:55:28.009Z,97996.66
2023-01-19T07:00:30.480Z,97976.22
2023-01-19T07:05:33.979Z,98052.16
2023-01-19T07:11:24.368Z,98042.22
2023-01-19T07:15:59.264Z,98021.25
2023-01-19T07:21:01.830Z,98130.91
2023-01-19T07:26:04.058Z,98068.00
2023-01-19T07:31:06.774Z,98071.84
2023-01-19T07:36:09.571Z,98096.31
2023-01-19T07:41:12.247Z,98050.38
2023-01-19T07:46:14.577Z,98054.69
2023-01-19T07:51:19.568Z,98052.63
2023-01-19T07:56:22.465Z,98095.81
2023-01-19T08:01:24.788Z,98142.16
2023-01-19T08:06:34.076Z,98136.47
2023-01-19T08:11:36.837Z,98154.44
2023-01-19T08:16:39.040Z,98138.25
2023-01-19T08:21:41.295Z,98204.00
2023-01-19T08:26:43.635Z,98087.47
2023-01-19T08:31:46.040Z,98215.47
2023-01-19T08:36:48.265Z,98172.25
2023-01-19T08:41:54.064Z,98252.84
2023-01-19T08:46:56.176Z,98193.56
2023-01-19T08:51:58.385Z,98241.56
2023-01-19T08:57:00.603Z,98283.69
2023-01-19T09:02:02.804Z,98283.94
2023-01-19T09:12:08.302Z,98158.66
2023-01-19T09:17:10.601Z,98209.44
2023-01-19T09:22:12.697Z,98189.84
2023-01-19T09:27:14.953Z,98206.19
2023-01-19T09:32:17.275Z,98229.47
2023-01-19T09:37:19.376Z,98123.50
2023-01-19T09:42:35.011Z,98235.56
2023-01-19T09:47:38.437Z,98186.34
2023-01-19T09:52:44.835Z,98215.44
2023-01-19T09:57:47.048Z,98273.03
2023-01-19T10:02:57.927Z,98250.41
2023-01-19T10:08:44.135Z,98243.03
2023-01-19T10:13:52.395Z,98233.22
2023-01-19T10:19:00.419Z,98236.78
2023-01-19T10:24:20.155Z,98257.84
2023-01-19T10:29:37.843Z,98232.25
2023-01-19T10:34:41.657Z,98240.81
2023-01-19T10:39:53.033Z,98280.91
2023-01-19T10:44:55.607Z,98215.31
2023-01-19T10:49:58.055Z,98273.59
2023-01-19T10:55:04.395Z,98261.91
2023-01-19T11:00:30.327Z,98223.59
2023-01-19T11:05:34.750Z,98124.13
2023-01-19T11:10:38.583Z,98204.47
2023-01-19T11:15:57.636Z,98121.19
2023-01-19T11:21:04.039Z,98248.16
2023-01-19T11:26:06.616Z,98269.72
2023-01-19T11:31:14.793Z,98231.44
2023-01-19T11:36:25.660Z,98239.34
2023-01-19T11:41:37.650Z,98272.19
2023-01-19T11:46:45.239Z,98271.72
2023-01-19T11:52:15.643Z,98302.53
2023-01-19T11:57:18.052Z,98186.41
2023-01-19T12:02:43.801Z,98256.59
2023-01-19T12:07:48.304Z,98251.81
2023-01-19T12:12:52.278Z,98232.38
2023-01-19T12:18:00.772Z,98247.28
2023-01-19T12:23:16.675Z,98234.88
2023-01-19T12:28:33.287Z,98218.09
2023-01-19T12:33:38.485Z,98183.13
2023-01-19T12:38:52.908Z,98188.25
2023-01-19T12:44:16.524Z,98281.00
2023-01-19T12:49:37.884Z,98248.59
2023-01-19T12:55:15.179Z,98180.53
2023-01-19T13:00:23.437Z,98215.16
2023-01-19T13:05:32.864Z,98183.03
2023-01-19T13:11:00.278Z,98225.56
2023-01-19T13:16:29.644Z,98160.84
2023-01-19T13:21:39.104Z,98232.84
2023-01-19T13:26:50.573Z,98176.94
2023-01-19T13:31:54.821Z,98164.06
2023-01-19T13:37:02.159Z,98148.06
2023-01-19T13:42:43.878Z,98240.28
2023-01-19T13:47:49.022Z,98136.88
2023-01-19T13:52:54.070Z,98156.34
2023-01-19T13:57:57.399Z,98155.44
2023-01-19T14:03:21.625Z,98237.81
2023-01-19T14:08:25.680Z,98123.34
2023-01-19T14:13:41.701Z,98252.00
2023-01-19T14:18:44.182Z,98208.47
2023-01-19T14:24:06.136Z,98249.31
2023-01-19T14:29:29.506Z,98181.75
2023-01-19T14:34:44.606Z,98168.31
2023-01-19T14:39:51.539Z,98162.44
2023-01-19T14:44:56.075Z,98124.44
2023-01-19T14:50:07.486Z,98202.03
2023-01-19T14:55:45.490Z,98235.28
2023-01-19T15:00:49.054Z,98279.16
2023-01-19T15:05:51.668Z,98252.00
2023-01-19T15:10:53.915Z,98138.78
2023-01-19T15:15:56.290Z,98212.44
2023-01-19T15:21:03.219Z,98223.31
2023-01-19T15:26:05.915Z,98147.53
2023-01-19T15:31:09.469Z,98243.22
2023-01-19T15:36:18.307Z,98146.31
2023-01-19T15:41:27.469Z,98138.13
2023-01-19T15:46:29.785Z,98192.06
2023-01-19T15:51:32.707Z,98169.00
2023-01-19T15:56:35.024Z,98160.19
2023-01-19T16:01:37.560Z,98195.00
2023-01-19T16:06:40.046Z,98160.97
2023-01-19T16:11:42.321Z,98213.34
2023-01-19T16:16:46.266Z,98143.69
2023-01-19T16:21:48.470Z,98107.72
2023-01-19T16:26:50.748Z,98094.72
2023-01-19T16:31:52.887Z,98177.16
2023-01-19T16:36:55.230Z,98134.41
2023-01-19T16:41:57.370Z,98141.19
2023-01-19T16:46:59.535Z,98110.44
2023-01-19T16:52:02.024Z,98130.91
2023-01-19T16:57:04.280Z,98079.13
2023-01-19T17:02:07.404Z,98178.97
2023-01-19T17:07:09.721Z,98119.91
2023-01-19T17:12:12.722Z,98151.81
2023-01-19T17:17:15.134Z,98086.91
2023-01-19T17:22:17.240Z,98121.50
2023-01-19T17:27:19.331Z,98142.53
2023-01-19T17:32:21.475Z,98152.00
2023-01-19T17:37:23.923Z,98109.41
2023-01-19T17:42:26.014Z,98186.19
2023-01-19T17:47:28.110Z,98154.94
2023-01-19T17:52:30.205Z,98073.78
2023-01-19T17:57:32.496Z,98075.59
2023-01-19T18:02:34.889Z,98047.56
2023-01-19T18:07:37.046Z,98064.78
2023-01-19T18:12:39.422Z,98154.31
2023-01-19T18:17:41.496Z,98086.66
2023-01-19T18:22:43.564Z,98102.06
2023-01-19T18:27:45.826Z,98133.47
2023-01-19T18:32:48.089Z,98193.59
2023-01-19T18:37:50.169Z,98185.22
2023-01-19T18:42:52.272Z,98210.94
2023-01-19T18:47:54.371Z,98094.13
2023-01-19T18:52:56.470Z,98065.88
2023-01-19T18:57:58.683Z,98151.13
2023-01-19T19:03:01.562Z,98179.72
2023-01-19T19:08:04.840Z,98205.81
2023-01-19T19:13:07.150Z,98135.50
2023-01-19T19:18:11.192Z,98187.50
2023-01-19T19:23:13.358Z,98074.91
2023-01-19T19:28:15.625Z,98060.44
2023-01-19T19:33:17.876Z,98050.63
2023-01-19T19:38:20.105Z,98189.91
2023-01-19T19:43:22.990Z,98043.38
2023-01-19T19:48:25.717Z,98187.28
2023-01-19T19:53:28.030Z,98150.69
2023-01-19T19:58:31.062Z,98080.59
2023-01-19T20:03:33.155Z,98189.75
2023-01-19T20:08:35.947Z,98007.03
2023-01-19T20:13:40.664Z,98113.38
2023-01-19T20:18:48.544Z,98069.53
2023-01-19T20:23:54.231Z,98102.31
2023-01-19T20:29:03.109Z,97979.19
2023-01-19T20:34:08.957Z,98016.84
2023-01-19T20:39:11.435Z,97963.59
2023-01-19T20:44:19.748Z,98051.81
2023-01-19T20:49:22.376Z,98125.53
2023-01-19T20:54:28.040Z,98107.69
2023-01-19T20:59:30.265Z,98126.34
2023-01-19T21:04:32.369Z,98070.97
2023-01-19T21:09:34.986Z,98066.31
2023-01-19T21:14:37.401Z,98057.97
2023-01-19T21:19:39.533Z,98193.19
2023-01-19T21:24:44.322Z,98125.38
2023-01-19T21:29:48.555Z,98167.88
2023-01-19T21:34:50.827Z,98191.75
2023-01-19T21:39:52.964Z,98168.31
2023-01-19T21:44:55.173Z,98230.66
2023-01-19T21:49:57.285Z,98245.59
2023-01-19T21:54:59.507Z,98237.31
2023-01-19T22:00:01.678Z,98104.09
2023-01-19T22:05:06.669Z,98196.47
2023-01-19T22:10:11.124Z,98164.47
2023-01-19T22:15:13.405Z,98265.84
2023-01-19T22:20:16.061Z,98160.53
2023-01-19T22:25:21.962Z,98242.78
2023-01-19T22:30:24.248Z,98186.63
2023-01-19T22:35:26.517Z,98218.09
2023-01-19T22:40:28.880Z,98255.19
2023-01-19T22:45:30.965Z,98218.06
2023-01-19T22:50:33.164Z,98198.03
2023-01-19T22:55:35.711Z,98262.88
2023-01-19T23:00:37.949Z,98171.34
2023-01-19T23:05:40.174Z,98303.66
2023-01-19T23:10:42.472Z,98235.28
2023-01-19T23:15:44.801Z,98175.06
2023-01-19T23:20:47.171Z,98287.81
2023-01-19T23:26:08.452Z,98309.31
2023-01-19T23:31:23.095Z,98257.44
2023-01-19T23:36:28.387Z,98298.34
2023-01-19T23:41:34.656Z,98286.66
2023-01-19T23:46:36.998Z,98141.44
2023-01-19T23:51:40.747Z,98295.34
2023-01-19T23:56:43.228Z,98301.75
